createdAt,value
2018-12-26T00:00:32.387Z,1008.42
2018-12-26T00:01:32.387Z,1008.41
2018-12-26T00:02:32.366Z,1008.38
2018-12-26T00:03:32.418Z,1008.42
2018-12-26T00:04:32.344Z,1008.36
2018-12-26T00:05:32.336Z,1008.38
2018-12-26T00:06:32.334Z,1008.39
2018-12-26T00:07:32.358Z,1008.35
2018-12-26T00:08:32.301Z,1008.29
2018-12-26T00:09:32.333Z,1008.30
2018-12-26T00:10:32.366Z,1008.31
2018-12-26T00:11:32.343Z,1008.27
2018-12-26T00:12:32.260Z,1008.32
2018-12-26T00:13:32.249Z,1008.31
2018-12-26T00:14:32.256Z,1008.31
2018-12-26T00:15:32.252Z,1008.30
2018-12-26T00:16:32.247Z,1008.31
2018-12-26T00:17:32.263Z,1008.34
2018-12-26T00:18:32.234Z,1008.28
2018-12-26T00:19:32.223Z,1008.28
2018-12-26T00:20:32.233Z,1008.21
2018-12-26T00:21:32.170Z,1008.18
2018-12-26T00:22:32.206Z,1008.27
2018-12-26T00:23:32.170Z,1008.21
2018-12-26T00:24:32.199Z,1008.23
2018-12-26T00:25:32.172Z,1008.26
2018-12-26T00:26:32.127Z,1008.18
2018-12-26T00:27:32.127Z,1008.18
2018-12-26T00:28:32.101Z,1008.16
2018-12-26T00:29:32.115Z,1008.14
2018-12-26T00:30:32.116Z,1008.15
2018-12-26T00:31:32.092Z,1008.11
2018-12-26T00:32:32.054Z,1008.10
2018-12-26T00:33:32.052Z,1008.16
2018-12-26T00:34:32.051Z,1008.13
2018-12-26T00:35:32.043Z,1008.12
2018-12-26T00:36:32.010Z,1008.12
2018-12-26T00:37:32.016Z,1008.13
2018-12-26T00:38:32.019Z,1008.08
2018-12-26T00:39:31.999Z,1008.12
2018-12-26T00:40:31.967Z,1008.09
2018-12-26T00:41:31.957Z,1008.04
2018-12-26T00:42:31.960Z,1008.04
2018-12-26T00:43:31.968Z,1008.05
2018-12-26T00:44:31.947Z,1007.97
2018-12-26T00:45:31.937Z,1007.98
2018-12-26T00:46:31.924Z,1008.01
2018-12-26T00:47:31.925Z,1008.02
2018-12-26T00:48:31.894Z,1008.02
2018-12-26T00:49:32.079Z,1008.03
2018-12-26T00:50:31.881Z,1008.01
2018-12-26T00:51:31.851Z,1007.99
2018-12-26T00:52:31.853Z,1008.04
2018-12-26T00:53:31.841Z,1007.98
2018-12-26T00:54:31.838Z,1008.02
2018-12-26T00:55:31.839Z,1007.99
2018-12-26T00:56:31.843Z,1007.98
2018-12-26T00:57:31.809Z,1008.00
2018-12-26T00:58:31.800Z,1008.04
2018-12-26T00:59:31.811Z,1008.00
2018-12-26T01:00:31.800Z,1008.04
2018-12-26T01:01:31.773Z,1008.00
2018-12-26T01:02:31.831Z,1008.04
2018-12-26T01:03:31.729Z,1008.05
2018-12-26T01:04:31.719Z,1008.09
2018-12-26T01:05:31.730Z,1008.09
2018-12-26T01:06:31.723Z,1008.07
2018-12-26T01:07:31.694Z,1008.00
2018-12-26T01:08:31.683Z,1008.09
2018-12-26T01:09:31.692Z,1008.09
2018-12-26T01:10:31.682Z,1008.14
2018-12-26T01:11:31.655Z,1008.11
2018-12-26T01:12:31.641Z,1008.11
2018-12-26T01:13:31.645Z,1008.11
2018-12-26T01:14:31.613Z,1008.13
2018-12-26T01:15:31.645Z,1008.12
2018-12-26T01:16:31.605Z,1008.14
2018-12-26T01:17:31.592Z,1008.16
2018-12-26T01:18:31.578Z,1008.14
2018-12-26T01:19:31.598Z,1008.14
2018-12-26T01:20:31.560Z,1008.19
2018-12-26T01:21:31.559Z,1008.18
2018-12-26T01:22:31.531Z,1008.17
2018-12-26T01:23:31.560Z,1008.16
2018-12-26T01:24:31.523Z,1008.19
2018-12-26T01:25:31.524Z,1008.16
2018-12-26T01:26:31.488Z,1008.15
2018-12-26T01:27:31.488Z,1008.11
2018-12-26T01:28:31.494Z,1008.15
2018-12-26T01:29:31.484Z,1008.16
2018-12-26T01:30:31.446Z,1008.14
2018-12-26T01:31:31.441Z,1008.14
2018-12-26T01:32:31.477Z,1008.12
2018-12-26T01:33:31.412Z,1008.06
2018-12-26T01:34:31.447Z,1008.04
2018-12-26T01:35:31.404Z,1008.01
2018-12-26T01:36:31.385Z,1008.03
2018-12-26T01:37:31.371Z,1007.99
2018-12-26T01:38:31.362Z,1007.94
2018-12-26T01:39:31.364Z,1007.92
2018-12-26T01:40:31.355Z,1007.92
2018-12-26T01:41:31.329Z,1007.96
2018-12-26T01:42:31.367Z,1007.95
2018-12-26T01:43:31.309Z,1007.88
2018-12-26T01:44:31.315Z,1007.89
2018-12-26T01:45:31.285Z,1007.90
2018-12-26T01:46:31.281Z,1007.90
2018-12-26T01:47:31.286Z,1007.91
2018-12-26T01:48:31.255Z,1007.86
2018-12-26T01:49:31.286Z,1007.90
2018-12-26T01:50:31.238Z,1007.91
2018-12-26T01:51:31.245Z,1007.92
2018-12-26T01:52:31.268Z,1007.91
2018-12-26T01:53:31.203Z,1007.89
2018-12-26T01:54:31.207Z,1007.95
2018-12-26T01:55:31.192Z,1007.90
2018-12-26T01:56:31.194Z,1007.89
2018-12-26T01:57:31.164Z,1007.88
2018-12-26T01:58:31.192Z,1007.90
2018-12-26T01:59:31.156Z,1007.90
2018-12-26T02:00:31.137Z,1007.90
2018-12-26T02:01:31.146Z,1007.83
2018-12-26T02:02:31.164Z,1007.90
2018-12-26T02:03:31.122Z,1007.85
2018-12-26T02:04:31.086Z,1007.86
2018-12-26T02:05:31.092Z,1007.84
2018-12-26T02:06:31.084Z,1007.88
2018-12-26T02:07:31.058Z,1007.85
2018-12-26T02:08:31.047Z,1007.87
2018-12-26T02:09:31.043Z,1007.80
2018-12-26T02:10:31.043Z,1007.78
2018-12-26T02:11:31.033Z,1007.83
2018-12-26T02:12:31.023Z,1007.86
2018-12-26T02:13:31.037Z,1007.83
2018-12-26T02:14:30.993Z,1007.88
2018-12-26T02:15:30.986Z,1007.85
2018-12-26T02:16:30.991Z,1007.83
2018-12-26T02:17:30.968Z,1007.86
2018-12-26T02:18:30.966Z,1007.87
2018-12-26T02:19:30.932Z,1007.89
2018-12-26T02:20:30.922Z,1007.90
2018-12-26T02:21:30.921Z,1007.92
2018-12-26T02:22:30.896Z,1007.93
2018-12-26T02:23:30.890Z,1007.94
2018-12-26T02:24:30.877Z,1007.94
2018-12-26T02:25:30.872Z,1007.90
2018-12-26T02:26:36.385Z,1007.96
2018-12-26T02:27:31.853Z,1007.91
2018-12-26T02:28:30.854Z,1007.92
2018-12-26T02:29:30.827Z,1007.88
2018-12-26T02:30:30.829Z,1007.90
2018-12-26T02:31:30.830Z,1007.87
2018-12-26T02:32:30.790Z,1007.87
2018-12-26T02:33:30.899Z,1007.85
2018-12-26T02:34:30.769Z,1007.89
2018-12-26T02:35:30.757Z,1007.87
2018-12-26T02:36:31.052Z,1007.88
2018-12-26T02:37:30.738Z,1007.88
2018-12-26T02:38:30.726Z,1007.86
2018-12-26T02:39:30.724Z,1007.89
2018-12-26T02:40:30.843Z,1007.84
2018-12-26T02:41:30.714Z,1007.85
2018-12-26T02:42:30.717Z,1007.82
2018-12-26T02:43:30.684Z,1007.81
2018-12-26T02:44:30.690Z,1007.86
2018-12-26T02:45:30.710Z,1007.78
2018-12-26T02:46:30.644Z,1007.74
2018-12-26T02:47:30.672Z,1007.79
2018-12-26T02:48:30.669Z,1007.76
2018-12-26T02:49:30.614Z,1007.73
2018-12-26T02:50:30.601Z,1007.72
2018-12-26T02:51:30.606Z,1007.75
2018-12-26T02:52:30.599Z,1007.74
2018-12-26T02:53:30.616Z,1007.75
2018-12-26T02:54:30.566Z,1007.71
2018-12-26T02:55:30.553Z,1007.70
2018-12-26T02:56:30.557Z,1007.70
2018-12-26T02:57:30.556Z,1007.66
2018-12-26T02:58:30.558Z,1007.67
2018-12-26T02:59:30.571Z,1007.61
2018-12-26T03:00:30.503Z,1007.64
2018-12-26T03:01:30.510Z,1007.65
2018-12-26T03:02:30.513Z,1007.70
2018-12-26T03:03:30.511Z,1007.61
2018-12-26T03:04:30.473Z,1007.68
2018-12-26T03:05:30.447Z,1007.67
2018-12-26T03:06:30.474Z,1007.68
2018-12-26T03:07:30.453Z,1007.67
2018-12-26T03:08:30.434Z,1007.71
2018-12-26T03:09:30.406Z,1007.66
2018-12-26T03:10:30.397Z,1007.62
2018-12-26T03:11:30.389Z,1007.72
2018-12-26T03:12:30.393Z,1007.68
2018-12-26T03:13:30.369Z,1007.73
2018-12-26T03:14:30.385Z,1007.73
2018-12-26T03:15:30.352Z,1007.75
2018-12-26T03:16:30.361Z,1007.72
2018-12-26T03:17:30.338Z,1007.77
2018-12-26T03:18:30.313Z,1007.73
2018-12-26T03:19:30.319Z,1007.71
2018-12-26T03:20:30.307Z,1007.69
2018-12-26T03:21:30.277Z,1007.71
2018-12-26T03:22:30.283Z,1007.71
2018-12-26T03:23:30.299Z,1007.66
2018-12-26T03:24:30.265Z,1007.68
2018-12-26T03:25:30.255Z,1007.65
2018-12-26T03:26:30.238Z,1007.65
2018-12-26T03:27:30.227Z,1007.66
2018-12-26T03:28:30.205Z,1007.66
2018-12-26T03:29:30.193Z,1007.61
2018-12-26T03:30:30.221Z,1007.62
2018-12-26T03:31:30.191Z,1007.61
2018-12-26T03:32:30.185Z,1007.62
2018-12-26T03:33:30.151Z,1007.56
2018-12-26T03:34:30.152Z,1007.65
2018-12-26T03:35:30.160Z,1007.62
2018-12-26T03:36:30.121Z,1007.61
2018-12-26T03:37:30.121Z,1007.62
2018-12-26T03:38:30.148Z,1007.57
2018-12-26T03:39:30.122Z,1007.56
2018-12-26T03:40:30.077Z,1007.54
2018-12-26T03:41:30.080Z,1007.56
2018-12-26T03:42:30.077Z,1007.51
2018-12-26T03:43:30.071Z,1007.48
2018-12-26T03:44:30.036Z,1007.41
2018-12-26T03:45:30.032Z,1007.33
2018-12-26T03:46:30.031Z,1007.38
2018-12-26T03:47:30.037Z,1007.37
2018-12-26T03:48:29.998Z,1007.43
2018-12-26T03:49:30.026Z,1007.41
2018-12-26T03:50:29.982Z,1007.38
2018-12-26T03:51:29.985Z,1007.34
2018-12-26T03:52:29.987Z,1007.31
2018-12-26T03:53:29.959Z,1007.30
2018-12-26T03:54:29.935Z,1007.32
2018-12-26T03:55:29.918Z,1007.29
2018-12-26T03:56:29.929Z,1007.25
2018-12-26T03:57:29.918Z,1007.29
2018-12-26T03:58:29.914Z,1007.27
2018-12-26T03:59:29.876Z,1007.24
2018-12-26T04:00:29.900Z,1007.17
2018-12-26T04:01:29.869Z,1007.21
2018-12-26T04:02:29.845Z,1007.20
2018-12-26T04:03:29.850Z,1007.21
2018-12-26T04:04:29.822Z,1007.19
2018-12-26T04:05:29.820Z,1007.16
2018-12-26T04:06:29.817Z,1007.14
2018-12-26T04:07:29.792Z,1007.14
2018-12-26T04:08:29.786Z,1007.14
2018-12-26T04:09:29.787Z,1007.17
2018-12-26T04:10:29.761Z,1007.17
2018-12-26T04:11:29.763Z,1007.15
2018-12-26T04:12:29.738Z,1007.11
2018-12-26T04:13:29.749Z,1007.15
2018-12-26T04:14:29.718Z,1007.15
2018-12-26T04:15:29.707Z,1007.14
2018-12-26T04:16:29.711Z,1007.20
2018-12-26T04:17:29.738Z,1007.15
2018-12-26T04:18:29.705Z,1007.18
2018-12-26T04:19:29.671Z,1007.20
2018-12-26T04:20:29.667Z,1007.13
2018-12-26T04:21:29.677Z,1007.17
2018-12-26T04:22:29.636Z,1007.16
2018-12-26T04:23:29.680Z,1007.17
2018-12-26T04:24:29.627Z,1007.16
2018-12-26T04:25:29.599Z,1007.11
2018-12-26T04:26:29.675Z,1007.11
2018-12-26T04:27:29.584Z,1007.15
2018-12-26T04:28:29.581Z,1007.13
2018-12-26T04:29:29.559Z,1007.08
2018-12-26T04:30:29.550Z,1007.08
2018-12-26T04:31:29.600Z,1007.09
2018-12-26T04:32:29.546Z,1007.07
2018-12-26T04:33:29.525Z,1007.05
2018-12-26T04:34:29.532Z,1007.04
2018-12-26T04:35:29.503Z,1007.04
2018-12-26T04:36:29.567Z,1007.05
2018-12-26T04:37:29.475Z,1007.09
2018-12-26T04:38:29.467Z,1007.05
2018-12-26T04:39:29.473Z,1007.09
2018-12-26T04:40:29.489Z,1007.10
2018-12-26T04:41:29.461Z,1007.12
2018-12-26T04:42:29.428Z,1007.14
2018-12-26T04:43:29.426Z,1007.15
2018-12-26T04:44:29.423Z,1007.11
2018-12-26T04:45:29.390Z,1007.18
2018-12-26T04:46:29.437Z,1007.17
2018-12-26T04:47:29.391Z,1007.15
2018-12-26T04:48:29.357Z,1007.15
2018-12-26T04:49:29.355Z,1007.09
2018-12-26T04:50:29.358Z,1007.24
2018-12-26T04:51:29.341Z,1007.18
2018-12-26T04:52:29.314Z,1007.20
2018-12-26T04:53:29.341Z,1007.27
2018-12-26T04:54:29.309Z,1007.24
2018-12-26T04:55:29.282Z,1007.27
2018-12-26T04:56:29.299Z,1007.28
2018-12-26T04:57:29.301Z,1007.28
2018-12-26T04:58:29.289Z,1007.37
2018-12-26T04:59:29.261Z,1007.36
2018-12-26T05:00:29.244Z,1007.41
2018-12-26T05:01:29.234Z,1007.40
2018-12-26T05:02:29.222Z,1007.42
2018-12-26T05:03:29.228Z,1007.45
2018-12-26T05:04:29.187Z,1007.51
2018-12-26T05:05:29.183Z,1007.53
2018-12-26T05:06:29.195Z,1007.53
2018-12-26T05:07:29.158Z,1007.48
2018-12-26T05:08:29.177Z,1007.48
2018-12-26T05:09:29.141Z,1007.43
2018-12-26T05:10:29.144Z,1007.42
2018-12-26T05:11:29.145Z,1007.39
2018-12-26T05:12:29.108Z,1007.42
2018-12-26T05:13:29.140Z,1007.43
2018-12-26T05:14:29.101Z,1007.40
2018-12-26T05:15:29.073Z,1007.38
2018-12-26T05:16:29.092Z,1007.37
2018-12-26T05:17:29.062Z,1007.39
2018-12-26T05:18:29.043Z,1007.34
2018-12-26T05:19:29.033Z,1007.37
2018-12-26T05:20:29.025Z,1007.37
2018-12-26T05:21:29.056Z,1007.41
2018-12-26T05:22:29.016Z,1007.46
2018-12-26T05:23:28.992Z,1007.46
2018-12-26T05:24:28.985Z,1007.43
2018-12-26T05:25:28.984Z,1007.46
2018-12-26T05:26:28.978Z,1007.45
2018-12-26T05:27:34.155Z,1007.41
2018-12-26T05:28:29.934Z,1007.39
2018-12-26T05:29:28.960Z,1007.41
2018-12-26T05:30:28.916Z,1007.36
2018-12-26T05:31:28.942Z,1007.34
2018-12-26T05:32:28.900Z,1007.36
2018-12-26T05:33:28.891Z,1007.36
2018-12-26T05:34:28.871Z,1007.39
2018-12-26T05:35:28.868Z,1007.44
2018-12-26T05:36:28.867Z,1007.41
2018-12-26T05:37:28.856Z,1007.39
2018-12-26T05:38:28.828Z,1007.34
2018-12-26T05:39:28.838Z,1007.31
2018-12-26T05:40:28.826Z,1007.28
2018-12-26T05:41:28.816Z,1007.31
2018-12-26T05:42:28.790Z,1007.35
2018-12-26T05:43:28.783Z,1007.37
2018-12-26T05:44:28.817Z,1007.37
2018-12-26T05:45:28.779Z,1007.38
2018-12-26T05:46:28.782Z,1007.38
2018-12-26T05:47:28.741Z,1007.41
2018-12-26T05:48:28.750Z,1007.39
2018-12-26T05:49:28.714Z,1007.43
2018-12-26T05:50:28.704Z,1007.45
2018-12-26T05:51:28.731Z,1007.42
2018-12-26T05:52:28.744Z,1007.41
2018-12-26T05:53:28.672Z,1007.44
2018-12-26T05:54:28.663Z,1007.48
2018-12-26T05:55:28.667Z,1007.43
2018-12-26T05:56:28.656Z,1007.47
2018-12-26T05:57:28.628Z,1007.45
2018-12-26T05:58:28.641Z,1007.45
2018-12-26T05:59:28.618Z,1007.44
2018-12-26T06:00:28.650Z,1007.48
2018-12-26T06:01:28.616Z,1007.50
2018-12-26T06:02:28.584Z,1007.48
2018-12-26T06:03:28.577Z,1007.51
2018-12-26T06:04:28.568Z,1007.42
2018-12-26T06:05:28.548Z,1007.39
2018-12-26T06:06:28.546Z,1007.39
2018-12-26T06:07:28.521Z,1007.38
2018-12-26T06:08:28.518Z,1007.39
2018-12-26T06:09:28.564Z,1007.44
2018-12-26T06:10:28.515Z,1007.49
2018-12-26T06:11:28.496Z,1007.47
2018-12-26T06:12:28.469Z,1007.44
2018-12-26T06:13:28.566Z,1007.45
2018-12-26T06:14:28.454Z,1007.50
2018-12-26T06:15:28.452Z,1007.50
2018-12-26T06:16:28.464Z,1007.48
2018-12-26T06:17:28.420Z,1007.52
2018-12-26T06:18:28.413Z,1007.52
2018-12-26T06:19:28.450Z,1007.51
2018-12-26T06:20:28.389Z,1007.52
2018-12-26T06:21:28.420Z,1007.51
2018-12-26T06:22:28.373Z,1007.45
2018-12-26T06:23:28.376Z,1007.43
2018-12-26T06:24:28.349Z,1007.52
2018-12-26T06:25:28.343Z,1007.46
2018-12-26T06:26:28.358Z,1007.47
2018-12-26T06:27:28.327Z,1007.49
2018-12-26T06:28:28.301Z,1007.39
2018-12-26T06:29:28.311Z,1007.42
2018-12-26T06:30:28.294Z,1007.46
2018-12-26T06:31:28.268Z,1007.46
2018-12-26T06:32:28.272Z,1007.49
2018-12-26T06:33:28.251Z,1007.46
2018-12-26T06:34:28.245Z,1007.46
2018-12-26T06:35:28.228Z,1007.49
2018-12-26T06:36:28.221Z,1007.53
2018-12-26T06:37:28.220Z,1007.55
2018-12-26T06:38:28.213Z,1007.55
2018-12-26T06:39:28.192Z,1007.57
2018-12-26T06:40:28.176Z,1007.56
2018-12-26T06:41:28.165Z,1007.59
2018-12-26T06:42:28.173Z,1007.61
2018-12-26T06:43:28.144Z,1007.57
2018-12-26T06:44:28.141Z,1007.59
2018-12-26T06:45:28.145Z,1007.58
2018-12-26T06:46:28.141Z,1007.56
2018-12-26T06:47:28.117Z,1007.55
2018-12-26T06:48:28.098Z,1007.56
2018-12-26T06:49:28.093Z,1007.58
2018-12-26T06:50:28.072Z,1007.62
2018-12-26T06:51:28.070Z,1007.61
2018-12-26T06:52:28.073Z,1007.63
2018-12-26T06:53:28.060Z,1007.66
2018-12-26T06:54:28.057Z,1007.69
2018-12-26T06:55:28.019Z,1007.61
2018-12-26T06:56:28.023Z,1007.65
2018-12-26T06:57:28.017Z,1007.70
2018-12-26T06:58:27.983Z,1007.71
2018-12-26T06:59:27.976Z,1007.69
2018-12-26T07:00:27.979Z,1007.66
2018-12-26T07:01:27.963Z,1007.72
2018-12-26T07:02:27.968Z,1007.72
2018-12-26T07:03:28.002Z,1007.73
2018-12-26T07:04:27.923Z,1007.74
2018-12-26T07:05:27.925Z,1007.67
2018-12-26T07:06:27.902Z,1007.67
2018-12-26T07:07:27.925Z,1007.65
2018-12-26T07:08:27.930Z,1007.65
2018-12-26T07:09:27.892Z,1007.66
2018-12-26T07:10:27.859Z,1007.64
2018-12-26T07:11:27.859Z,1007.65
2018-12-26T07:12:27.854Z,1007.68
2018-12-26T07:13:27.831Z,1007.64
2018-12-26T07:14:27.817Z,1007.71
2018-12-26T07:15:27.812Z,1007.68
2018-12-26T07:16:27.813Z,1007.65
2018-12-26T07:17:27.846Z,1007.71
2018-12-26T07:18:27.781Z,1007.67
2018-12-26T07:19:27.797Z,1007.75
2018-12-26T07:20:27.773Z,1007.72
2018-12-26T07:21:27.747Z,1007.77
2018-12-26T07:22:27.763Z,1007.74
2018-12-26T07:23:27.726Z,1007.75
2018-12-26T07:24:27.748Z,1007.74
2018-12-26T07:25:27.703Z,1007.68
2018-12-26T07:26:27.690Z,1007.71
2018-12-26T07:27:27.723Z,1007.69
2018-12-26T07:28:27.675Z,1007.73
2018-12-26T07:29:27.661Z,1007.69
2018-12-26T07:30:27.656Z,1007.70
2018-12-26T07:31:27.658Z,1007.63
2018-12-26T07:32:27.649Z,1007.63
2018-12-26T07:33:27.643Z,1007.66
2018-12-26T07:34:27.635Z,1007.66
2018-12-26T07:35:27.629Z,1007.71
2018-12-26T07:36:27.585Z,1007.71
2018-12-26T07:37:27.618Z,1007.75
2018-12-26T07:38:27.575Z,1007.76
2018-12-26T07:39:27.568Z,1007.78
2018-12-26T07:40:27.574Z,1007.78
2018-12-26T07:41:27.540Z,1007.77
2018-12-26T07:42:27.541Z,1007.73
2018-12-26T07:43:27.524Z,1007.72
2018-12-26T07:44:27.524Z,1007.75
2018-12-26T07:45:27.493Z,1007.70
2018-12-26T07:46:27.490Z,1007.73
2018-12-26T07:47:27.508Z,1007.72
2018-12-26T07:48:29.029Z,1007.70
2018-12-26T07:49:27.453Z,1007.76
2018-12-26T07:50:27.509Z,1007.73
2018-12-26T07:51:27.443Z,1007.78
2018-12-26T07:52:27.445Z,1007.80
2018-12-26T07:53:27.447Z,1007.78
2018-12-26T07:54:27.408Z,1007.83
2018-12-26T07:55:27.398Z,1007.82
2018-12-26T07:56:27.374Z,1007.84
2018-12-26T07:57:27.403Z,1007.84
2018-12-26T07:58:27.391Z,1007.84
2018-12-26T07:59:27.347Z,1007.89
2018-12-26T08:00:27.332Z,1007.90
2018-12-26T08:01:27.350Z,1007.91
2018-12-26T08:02:27.328Z,1007.89
2018-12-26T08:03:27.319Z,1007.90
2018-12-26T08:04:27.293Z,1007.89
2018-12-26T08:05:27.297Z,1007.92
2018-12-26T08:06:27.285Z,1007.94
2018-12-26T08:07:27.282Z,1007.96
2018-12-26T08:08:27.251Z,1007.99
2018-12-26T08:09:27.243Z,1007.96
2018-12-26T08:10:27.228Z,1008.01
2018-12-26T08:11:27.271Z,1008.04
2018-12-26T08:12:27.250Z,1008.00
2018-12-26T08:13:27.215Z,1008.03
2018-12-26T08:14:27.208Z,1007.98
2018-12-26T08:15:27.180Z,1008.03
2018-12-26T08:16:27.163Z,1007.99
2018-12-26T08:17:27.194Z,1007.99
2018-12-26T08:18:27.175Z,1008.00
2018-12-26T08:19:27.132Z,1008.09
2018-12-26T08:20:27.127Z,1008.05
2018-12-26T08:21:27.167Z,1008.11
2018-12-26T08:22:27.124Z,1008.09
2018-12-26T08:23:27.091Z,1008.13
2018-12-26T08:24:27.086Z,1008.09
2018-12-26T08:25:27.073Z,1008.14
2018-12-26T08:26:27.059Z,1008.09
2018-12-26T08:27:27.066Z,1008.11
2018-12-26T08:28:27.098Z,1008.12
2018-12-26T08:29:27.050Z,1008.16
2018-12-26T08:30:27.019Z,1008.18
2018-12-26T08:31:27.007Z,1008.18
2018-12-26T08:32:27.016Z,1008.25
2018-12-26T08:33:26.993Z,1008.23
2018-12-26T08:34:27.013Z,1008.25
2018-12-26T08:35:26.975Z,1008.21
2018-12-26T08:36:26.970Z,1008.23
2018-12-26T08:37:26.961Z,1008.18
2018-12-26T08:38:26.937Z,1008.16
2018-12-26T08:39:26.948Z,1008.20
2018-12-26T08:40:26.930Z,1008.15
2018-12-26T08:41:26.938Z,1008.10
2018-12-26T08:42:26.891Z,1008.20
2018-12-26T08:43:26.894Z,1008.19
2018-12-26T08:44:26.885Z,1008.16
2018-12-26T08:45:26.861Z,1008.16
2018-12-26T08:46:26.857Z,1008.20
2018-12-26T08:47:26.854Z,1008.18
2018-12-26T08:48:26.842Z,1008.19
2018-12-26T08:49:26.817Z,1008.25
2018-12-26T08:50:26.839Z,1008.27
2018-12-26T08:51:26.805Z,1008.24
2018-12-26T08:52:26.809Z,1008.17
2018-12-26T08:53:26.805Z,1008.21
2018-12-26T08:54:26.767Z,1008.25
2018-12-26T08:55:26.773Z,1008.26
2018-12-26T08:56:26.774Z,1008.22
2018-12-26T08:57:26.737Z,1008.25
2018-12-26T08:58:34.953Z,1008.33
2018-12-26T08:59:27.710Z,1008.25
2018-12-26T09:00:26.712Z,1008.28
2018-12-26T09:01:26.691Z,1008.30
2018-12-26T09:02:26.682Z,1008.26
2018-12-26T09:03:26.685Z,1008.27
2018-12-26T09:04:26.687Z,1008.25
2018-12-26T09:05:26.648Z,1008.24
2018-12-26T09:06:26.643Z,1008.25
2018-12-26T09:07:26.651Z,1008.26
2018-12-26T09:08:26.635Z,1008.28
2018-12-26T09:09:26.605Z,1008.24
2018-12-26T09:10:28.088Z,1008.28
2018-12-26T09:11:26.614Z,1008.27
2018-12-26T09:12:26.619Z,1008.30
2018-12-26T09:13:26.575Z,1008.26
2018-12-26T09:14:26.564Z,1008.26
2018-12-26T09:15:26.556Z,1008.26
2018-12-26T09:16:26.542Z,1008.26
2018-12-26T09:17:26.522Z,1008.24
2018-12-26T09:18:26.527Z,1008.22
2018-12-26T09:19:26.502Z,1008.24
2018-12-26T09:20:26.548Z,1008.19
2018-12-26T09:21:26.481Z,1008.16
2018-12-26T09:22:26.487Z,1008.15
2018-12-26T09:23:26.514Z,1008.16
2018-12-26T09:24:26.480Z,1008.14
2018-12-26T09:25:26.504Z,1008.14
2018-12-26T09:26:26.439Z,1008.14
2018-12-26T09:27:26.436Z,1008.16
2018-12-26T09:28:26.431Z,1008.15
2018-12-26T09:29:26.441Z,1008.16
2018-12-26T09:30:26.422Z,1008.10
2018-12-26T09:31:26.373Z,1008.07
2018-12-26T09:32:26.368Z,1008.07
2018-12-26T09:33:26.373Z,1008.09
2018-12-26T09:34:26.362Z,1008.11
2018-12-26T09:35:26.472Z,1008.08
2018-12-26T09:36:26.322Z,1008.12
2018-12-26T09:37:26.317Z,1008.13
2018-12-26T09:38:26.344Z,1008.17
2018-12-26T09:39:26.291Z,1008.15
2018-12-26T09:40:26.283Z,1008.24
2018-12-26T09:41:26.270Z,1008.19
2018-12-26T09:42:26.255Z,1008.24
2018-12-26T09:43:26.267Z,1008.19
2018-12-26T09:44:26.243Z,1008.18
2018-12-26T09:45:26.241Z,1008.21
2018-12-26T09:46:26.276Z,1008.21
2018-12-26T09:47:26.204Z,1008.24
2018-12-26T09:48:26.227Z,1008.24
2018-12-26T09:49:26.203Z,1008.26
2018-12-26T09:50:26.170Z,1008.23
2018-12-26T09:51:26.202Z,1008.25
2018-12-26T09:52:26.157Z,1008.22
2018-12-26T09:53:26.196Z,1008.27
2018-12-26T09:54:26.131Z,1008.25
2018-12-26T09:55:26.118Z,1008.20
2018-12-26T09:56:26.114Z,1008.22
2018-12-26T09:57:26.103Z,1008.23
2018-12-26T09:58:26.125Z,1008.26
2018-12-26T09:59:26.080Z,1008.18
2018-12-26T10:00:26.095Z,1008.22
2018-12-26T10:01:26.076Z,1008.21
2018-12-26T10:02:26.046Z,1008.14
2018-12-26T10:03:26.051Z,1008.17
2018-12-26T10:04:26.038Z,1008.27
2018-12-26T10:05:26.061Z,1008.17
2018-12-26T10:06:26.003Z,1008.19
2018-12-26T10:07:25.996Z,1008.14
2018-12-26T10:08:25.996Z,1008.15
2018-12-26T10:09:25.969Z,1008.13
2018-12-26T10:10:25.962Z,1008.15
2018-12-26T10:11:26.031Z,1008.07
2018-12-26T10:12:25.954Z,1008.10
2018-12-26T10:13:25.955Z,1008.06
2018-12-26T10:14:25.919Z,1008.01
2018-12-26T10:15:25.919Z,1008.03
2018-12-26T10:16:25.915Z,1007.99
2018-12-26T10:17:25.933Z,1007.93
2018-12-26T10:18:25.908Z,1007.91
2018-12-26T10:19:25.891Z,1007.94
2018-12-26T10:20:25.872Z,1007.91
2018-12-26T10:21:25.840Z,1007.98
2018-12-26T10:22:25.865Z,1007.95
2018-12-26T10:23:25.842Z,1007.89
2018-12-26T10:24:25.811Z,1007.92
2018-12-26T10:25:25.804Z,1007.89
2018-12-26T10:26:25.804Z,1007.94
2018-12-26T10:27:25.792Z,1007.94
2018-12-26T10:28:25.842Z,1007.90
2018-12-26T10:29:25.764Z,1007.91
2018-12-26T10:30:25.755Z,1007.89
2018-12-26T10:31:25.759Z,1007.93
2018-12-26T10:32:25.730Z,1007.85
2018-12-26T10:33:25.783Z,1007.87
2018-12-26T10:34:25.709Z,1007.82
2018-12-26T10:35:25.713Z,1007.86
2018-12-26T10:36:25.683Z,1007.84
2018-12-26T10:37:25.678Z,1007.82
2018-12-26T10:38:25.680Z,1007.87
2018-12-26T10:39:25.659Z,1007.85
2018-12-26T10:40:25.638Z,1007.84
2018-12-26T10:41:25.636Z,1007.84
2018-12-26T10:42:25.637Z,1007.80
2018-12-26T10:43:25.625Z,1007.78
2018-12-26T10:44:25.637Z,1007.80
2018-12-26T10:45:25.592Z,1007.82
2018-12-26T10:46:25.597Z,1007.84
2018-12-26T10:47:25.610Z,1007.77
2018-12-26T10:48:25.605Z,1007.76
2018-12-26T10:49:25.557Z,1007.81
2018-12-26T10:50:25.554Z,1007.81
2018-12-26T10:51:25.523Z,1007.76
2018-12-26T10:52:25.523Z,1007.80
2018-12-26T10:53:25.593Z,1007.71
2018-12-26T10:54:25.510Z,1007.65
2018-12-26T10:55:25.485Z,1007.66
2018-12-26T10:56:25.474Z,1007.64
2018-12-26T10:57:25.476Z,1007.63
2018-12-26T10:58:25.506Z,1007.60
2018-12-26T10:59:25.581Z,1007.58
2018-12-26T11:00:25.433Z,1007.61
2018-12-26T11:01:25.468Z,1007.63
2018-12-26T11:02:25.437Z,1007.66
2018-12-26T11:03:25.434Z,1007.59
2018-12-26T11:04:25.401Z,1007.56
2018-12-26T11:05:29.462Z,1007.56
2018-12-26T11:06:25.362Z,1007.53
2018-12-26T11:07:25.361Z,1007.56
2018-12-26T11:08:25.357Z,1007.55
2018-12-26T11:09:25.337Z,1007.52
2018-12-26T11:10:25.333Z,1007.50
2018-12-26T11:11:25.340Z,1007.52
2018-12-26T11:12:25.314Z,1007.56
2018-12-26T11:13:25.356Z,1007.43
2018-12-26T11:14:25.277Z,1007.45
2018-12-26T11:15:25.274Z,1007.37
2018-12-26T11:16:25.273Z,1007.40
2018-12-26T11:17:25.274Z,1007.38
2018-12-26T11:18:25.295Z,1007.37
2018-12-26T11:19:25.229Z,1007.32
2018-12-26T11:20:25.239Z,1007.33
2018-12-26T11:21:25.203Z,1007.32
2018-12-26T11:22:25.197Z,1007.27
2018-12-26T11:23:25.243Z,1007.29
2018-12-26T11:24:25.177Z,1007.28
2018-12-26T11:25:25.162Z,1007.21
2018-12-26T11:26:25.152Z,1007.18
2018-12-26T11:27:25.146Z,1007.15
2018-12-26T11:28:25.148Z,1007.21
2018-12-26T11:29:25.115Z,1007.18
2018-12-26T11:30:25.111Z,1007.06
2018-12-26T11:31:25.118Z,1007.11
2018-12-26T11:32:25.083Z,1007.10
2018-12-26T11:33:25.109Z,1007.06
2018-12-26T11:34:25.066Z,1007.06
2018-12-26T11:35:25.051Z,1007.03
2018-12-26T11:36:25.039Z,1006.98
2018-12-26T11:37:25.032Z,1007.00
2018-12-26T11:38:25.032Z,1006.99
2018-12-26T11:39:25.036Z,1006.90
2018-12-26T11:40:25.035Z,1006.92
2018-12-26T11:41:24.993Z,1006.90
2018-12-26T11:42:25.037Z,1006.92
2018-12-26T11:43:24.983Z,1006.86
2018-12-26T11:44:25.009Z,1006.88
2018-12-26T11:45:24.965Z,1006.83
2018-12-26T11:46:24.961Z,1006.83
2018-12-26T11:47:24.951Z,1006.83
2018-12-26T11:48:24.917Z,1006.86
2018-12-26T11:49:25.100Z,1006.84
2018-12-26T11:50:24.911Z,1006.83
2018-12-26T11:51:24.886Z,1006.88
2018-12-26T11:52:24.876Z,1006.87
2018-12-26T11:53:24.906Z,1006.81
2018-12-26T11:54:24.870Z,1006.84
2018-12-26T11:55:24.867Z,1006.79
2018-12-26T11:56:24.835Z,1006.81
2018-12-26T11:57:24.830Z,1006.80
2018-12-26T11:58:24.823Z,1006.75
2018-12-26T11:59:27.378Z,1006.75
2018-12-26T12:00:24.828Z,1006.80
2018-12-26T12:01:24.844Z,1006.74
2018-12-26T12:02:24.763Z,1006.80
2018-12-26T12:03:24.756Z,1006.84
2018-12-26T12:04:24.760Z,1006.81
2018-12-26T12:05:24.763Z,1006.80